This is the latest recevied weather packets stored in our database for station/object N8QF-1. If no packets are shown the sender has not sent any weather packets the latest 1 day(s).
| Time | Temp. | Humidity | Pressure | Rain* | Wind** | Luminosity | Snow |
|---|---|---|---|---|---|---|---|
| 1777975794 | 14.44° C | 88% | 1008.8 hPa | 0.51 mm | 0.89 m/s, 224° | - | - |
| 1777975494 | 14.44° C | 89% | 1008.9 hPa | 0.51 mm | 2.24 m/s, 270° | - | - |
| 1777975194 | 14.44° C | 87% | 1009 hPa | 0.51 mm | 2.68 m/s, 274° | - | - |
| 1777974893 | 15° C | 87% | 1008.9 hPa | 0 mm | 2.24 m/s, 267° | - | - |
| 1777974592 | 15° C | 86% | 1008.9 hPa | 0 mm | 0.89 m/s, 277° | - | - |
| 1777973990 | 15° C | 84% | 1009 hPa | 0 mm | 3.58 m/s, 252° | - | - |
| 1777973690 | 15.56° C | 83% | 1008.9 hPa | 0 mm | 2.24 m/s, 315° | - | - |
| 1777973389 | 15.56° C | 82% | 1009 hPa | 0 mm | 1.34 m/s, 280° | - | - |
| 1777973089 | 15.56° C | 81% | 1008.9 hPa | 0 mm | 2.24 m/s, 284° | - | - |
| 1777972788 | 16.11° C | 80% | 1008.9 hPa | 0 mm | 2.24 m/s, 295° | - | - |
| 1777972488 | 16.67° C | 77% | 1008.7 hPa | 0 mm | 1.79 m/s, 323° | - | - |
| 1777972187 | 16.67° C | 74% | 1008.3 hPa | 0 mm | 2.24 m/s, 295° | - | - |
| 1777971887 | 17.22° C | 71% | 1007.9 hPa | 0 mm | 1.79 m/s, 3° | - | - |
| 1777971586 | 17.22° C | 70% | 1008.4 hPa | 0 mm | 3.13 m/s, 264° | - | - |
| 1777971286 | 17.22° C | 70% | 1008 hPa | 0 mm | 1.34 m/s, 308° | - | - |
| 1777970985 | 17.22° C | 69% | 1008.3 hPa | 0 mm | 2.24 m/s, 300° | - | - |
| 1777970685 | 17.22° C | 68% | 1007.9 hPa | 0 mm | 1.79 m/s, 277° | - | - |
| 1777970082 | 17.78° C | 67% | 1007.5 hPa | 0 mm | 0.45 m/s, 305° | - | - |
| 1777969781 | 17.78° C | 67% | 1007.5 hPa | 0 mm | 1.34 m/s, 319° | - | - |
| 1777969480 | 17.78° C | 64% | 1007.4 hPa | 0 mm | 1.79 m/s, 294° | - | - |
| 1777969180 | 17.78° C | 64% | 1007.3 hPa | 0 mm | 0.89 m/s, 277° | - | - |
| 1777968879 | 18.33° C | 62% | 1007.1 hPa | 0 mm | 0.89 m/s, 347° | - | - |
| 1777968579 | 18.33° C | 60% | 1007.2 hPa | 0 mm | 1.79 m/s, 350° | - | - |
| 1777967977 | 19.44° C | 54% | 1007.3 hPa | 0 mm | 2.68 m/s, 293° | - | - |
| 1777967676 | 19.44° C | 53% | 1007.4 hPa | 0 mm | 3.13 m/s, 276° | - | - |
* Rain latest hour (hover to see other rain measurements)
** Current wind speed in m/s (hover to see current wind gust speed)